Overview Statistics Trail Chart Weather Telemetry Raw packets
 

This is the latest recevied weather packets stored in our database for station/object S51UL-6. If no packets are shown the sender has not sent any weather packets the latest 10 day(s).

<< 69 70 71 72 73 74 75 >>
Time Temp. Humidity Pressure Rain* Wind** Luminosity Snow
1788008544 25° C 59% 1018.2 hPa 0 mm - - -
1788007945 24.44° C 57% 1018.6 hPa 0 mm - - -
1788007644 24.44° C 58% 1018.4 hPa 0 mm - - -
1788007344 24.44° C 57% 1018.7 hPa 0 mm - - -
1788006744 25° C 57% 1018.6 hPa 0 mm - - -
1788006444 25° C 57% 1018.6 hPa 0 mm - - -
1788006144 25.56° C 58% 1018.5 hPa 1.02 mm - - -
1788005844 25° C 58% 1018.5 hPa 1.52 mm - - -
1788005544 25° C 57% 1018.6 hPa 1.52 mm - - -
1788005244 25.56° C 56% 1018.5 hPa 1.52 mm - - -
1788004944 26.11° C 55% 1018.7 hPa 1.52 mm - - -
1788004045 26.11° C 60% 1018.6 hPa 1.52 mm - - -
1788002844 25° C 59% 1018.8 hPa 2.03 mm - - -
1788001946 25° C 59% 1018.8 hPa 2.54 mm - - -
1788001046 25.56° C 57% 1018.9 hPa 2.54 mm - - -
1788000145 26.11° C 55% 1019 hPa 2.54 mm - - -
1787999845 26.11° C 56% 1019.1 hPa 2.54 mm - - -
1787999545 26.11° C 56% 1018.8 hPa 2.03 mm - - -
1787998048 25.56° C 62% 1018.7 hPa 0 mm - - -
1787996847 23.33° C 67% 1019.3 hPa 0 mm - - -
1787995948 22.22° C 70% 1018.9 hPa 0 mm - - -
1787994747 22.22° C 71% 1018.9 hPa 0.51 mm - - -
1787994446 21.67° C 72% 1018.8 hPa 0.51 mm - - -
1787994148 21.67° C 72% 1018.9 hPa 1.02 mm - - -
1787993547 21.11° C 75% 1018.5 hPa 1.02 mm - - -

* Rain latest hour (hover to see other rain measurements)
** Current wind speed in m/s (hover to see current wind gust speed)